Terminal Aerodrome Forecast
Issued by NWS Greer, SC

Home | Current Version | Previous Version | Text Only | Print | Product List | Glossary On
Versions: 1 2 3 4 5 6 7 8 9 10 11 12 13 14 15 16 17 18 19 20 21 22 23 24 25 26 27 28 29 30 31 32 33 34 35 36 37 38 39 40 41 42 43 44 45 46 47 48 49 50
000
FTUS42 KGSP 191700 RRA
TAFAVL
TAF
KAVL 191742Z 1918/2018 17011KT P6SM VCSH BKN045
     FM200100 13003KT P6SM BKN040
     FM200400 00000KT 3SM BR BKN025
     FM200700 18003KT 2SM BR BKN015
     FM200900 00000KT 1SM BR OVC005
     FM201400 16004KT P6SM BKN015
     FM201700 18006KT P6SM SCT040=

USA.gov is the U.S. government's official web portal to all federal, state and local government web resources and services.